sensor_id;sensor_type;location;lat;lon;timestamp;temperature;humidity
15359;DHT22;7779;49.596;11.070;2023-04-25T00:01:30;9.70;63.10
15359;DHT22;7779;49.596;11.070;2023-04-25T00:03:57;9.70;63.10
15359;DHT22;7779;49.596;11.070;2023-04-25T00:06:23;9.70;63.10
15359;DHT22;7779;49.596;11.070;2023-04-25T00:08:52;9.70;63.30
15359;DHT22;7779;49.596;11.070;2023-04-25T00:11:18;9.70;63.30
15359;DHT22;7779;49.596;11.070;2023-04-25T00:13:44;9.70;63.30
15359;DHT22;7779;49.596;11.070;2023-04-25T00:16:11;9.70;63.40
15359;DHT22;7779;49.596;11.070;2023-04-25T00:18:41;9.70;63.40
15359;DHT22;7779;49.596;11.070;2023-04-25T00:21:07;9.80;64.20
15359;DHT22;7779;49.596;11.070;2023-04-25T00:23:33;9.80;63.60
15359;DHT22;7779;49.596;11.070;2023-04-25T00:26:01;9.80;63.60
15359;DHT22;7779;49.596;11.070;2023-04-25T00:28:26;9.80;63.60
15359;DHT22;7779;49.596;11.070;2023-04-25T00:30:52;9.90;63.80
15359;DHT22;7779;49.596;11.070;2023-04-25T00:33:18;9.90;63.80
15359;DHT22;7779;49.596;11.070;2023-04-25T00:35:43;9.90;63.80
15359;DHT22;7779;49.596;11.070;2023-04-25T00:38:09;9.90;63.80
15359;DHT22;7779;49.596;11.070;2023-04-25T00:40:35;10.00;62.80
15359;DHT22;7779;49.596;11.070;2023-04-25T00:43:00;10.00;62.80
15359;DHT22;7779;49.596;11.070;2023-04-25T00:45:28;10.00;62.80
15359;DHT22;7779;49.596;11.070;2023-04-25T00:47:55;10.10;62.90
15359;DHT22;7779;49.596;11.070;2023-04-25T00:50:22;10.10;62.90
15359;DHT22;7779;49.596;11.070;2023-04-25T00:52:48;10.10;62.90
15359;DHT22;7779;49.596;11.070;2023-04-25T00:55:14;10.10;62.80
15359;DHT22;7779;49.596;11.070;2023-04-25T00:57:41;10.10;62.70
15359;DHT22;7779;49.596;11.070;2023-04-25T01:00:08;10.20;62.80
15359;DHT22;7779;49.596;11.070;2023-04-25T01:02:36;10.20;62.90
15359;DHT22;7779;49.596;11.070;2023-04-25T01:05:03;10.20;62.80
15359;DHT22;7779;49.596;11.070;2023-04-25T01:07:29;10.20;62.90
15359;DHT22;7779;49.596;11.070;2023-04-25T01:09:56;10.20;62.90
15359;DHT22;7779;49.596;11.070;2023-04-25T01:12:22;10.30;62.90
15359;DHT22;7779;49.596;11.070;2023-04-25T01:14:48;10.30;62.90
15359;DHT22;7779;49.596;11.070;2023-04-25T01:17:14;10.30;62.90
15359;DHT22;7779;49.596;11.070;2023-04-25T01:19:41;10.40;63.10
15359;DHT22;7779;49.596;11.070;2023-04-25T01:22:07;10.40;63.00
15359;DHT22;7779;49.596;11.070;2023-04-25T01:24:35;10.40;63.60
15359;DHT22;7779;49.596;11.070;2023-04-25T01:27:02;10.40;62.90
15359;DHT22;7779;49.596;11.070;2023-04-25T01:29:29;10.40;62.80
15359;DHT22;7779;49.596;11.070;2023-04-25T01:31:56;10.40;62.70
15359;DHT22;7779;49.596;11.070;2023-04-25T01:34:24;10.40;62.80
15359;DHT22;7779;49.596;11.070;2023-04-25T01:36:51;10.40;62.70
15359;DHT22;7779;49.596;11.070;2023-04-25T01:39:17;10.40;62.70
15359;DHT22;7779;49.596;11.070;2023-04-25T01:41:47;10.40;62.70
15359;DHT22;7779;49.596;11.070;2023-04-25T01:44:14;10.40;62.60
15359;DHT22;7779;49.596;11.070;2023-04-25T01:46:41;10.50;62.70
15359;DHT22;7779;49.596;11.070;2023-04-25T01:49:07;10.50;62.60
15359;DHT22;7779;49.596;11.070;2023-04-25T01:51:33;10.50;62.50
15359;DHT22;7779;49.596;11.070;2023-04-25T01:53:59;10.50;62.50
15359;DHT22;7779;49.596;11.070;2023-04-25T01:56:30;10.50;62.50
15359;DHT22;7779;49.596;11.070;2023-04-25T01:58:57;10.50;62.60
15359;DHT22;7779;49.596;11.070;2023-04-25T02:01:43;10.50;62.40
15359;DHT22;7779;49.596;11.070;2023-04-25T02:04:21;10.50;62.40
15359;DHT22;7779;49.596;11.070;2023-04-25T02:06:47;10.50;62.30
15359;DHT22;7779;49.596;11.070;2023-04-25T02:09:14;10.50;62.40
15359;DHT22;7779;49.596;11.070;2023-04-25T02:11:44;10.50;62.40
15359;DHT22;7779;49.596;11.070;2023-04-25T02:14:23;10.50;62.40
15359;DHT22;7779;49.596;11.070;2023-04-25T02:17:04;10.50;62.50
15359;DHT22;7779;49.596;11.070;2023-04-25T02:19:31;10.50;62.40
15359;DHT22;7779;49.596;11.070;2023-04-25T02:21:57;10.50;62.30
15359;DHT22;7779;49.596;11.070;2023-04-25T02:24:23;10.50;62.40
15359;DHT22;7779;49.596;11.070;2023-04-25T02:26:49;10.50;62.40
15359;DHT22;7779;49.596;11.070;2023-04-25T02:29:15;10.50;62.40
15359;DHT22;7779;49.596;11.070;2023-04-25T02:31:42;10.50;62.30
15359;DHT22;7779;49.596;11.070;2023-04-25T02:34:08;10.50;62.30
15359;DHT22;7779;49.596;11.070;2023-04-25T02:36:36;10.50;62.20
15359;DHT22;7779;49.596;11.070;2023-04-25T02:39:02;10.50;62.30
15359;DHT22;7779;49.596;11.070;2023-04-25T02:41:28;10.50;62.30
15359;DHT22;7779;49.596;11.070;2023-04-25T02:43:54;10.50;62.30
15359;DHT22;7779;49.596;11.070;2023-04-25T02:46:20;10.50;62.30
15359;DHT22;7779;49.596;11.070;2023-04-25T02:48:46;10.50;63.00
15359;DHT22;7779;49.596;11.070;2023-04-25T02:51:12;10.50;62.30
15359;DHT22;7779;49.596;11.070;2023-04-25T02:53:38;10.40;62.30
15359;DHT22;7779;49.596;11.070;2023-04-25T02:56:04;10.40;62.30
15359;DHT22;7779;49.596;11.070;2023-04-25T02:58:29;10.40;62.30
15359;DHT22;7779;49.596;11.070;2023-04-25T03:00:55;10.40;62.30
15359;DHT22;7779;49.596;11.070;2023-04-25T03:03:21;10.40;62.20
15359;DHT22;7779;49.596;11.070;2023-04-25T03:05:51;10.40;62.20
15359;DHT22;7779;49.596;11.070;2023-04-25T03:08:22;10.40;62.30
15359;DHT22;7779;49.596;11.070;2023-04-25T03:10:48;10.30;62.10
15359;DHT22;7779;49.596;11.070;2023-04-25T03:13:15;10.40;62.20
15359;DHT22;7779;49.596;11.070;2023-04-25T03:15:43;10.40;62.30
15359;DHT22;7779;49.596;11.070;2023-04-25T03:18:09;10.30;62.30
15359;DHT22;7779;49.596;11.070;2023-04-25T03:20:35;10.30;62.30
15359;DHT22;7779;49.596;11.070;2023-04-25T03:23:02;10.30;62.40
15359;DHT22;7779;49.596;11.070;2023-04-25T03:25:29;10.30;62.40
15359;DHT22;7779;49.596;11.070;2023-04-25T03:27:54;10.30;62.50
15359;DHT22;7779;49.596;11.070;2023-04-25T03:30:21;10.30;62.50
15359;DHT22;7779;49.596;11.070;2023-04-25T03:32:47;10.30;62.50
15359;DHT22;7779;49.596;11.070;2023-04-25T03:35:16;10.30;62.50
15359;DHT22;7779;49.596;11.070;2023-04-25T03:37:42;10.30;62.50
15359;DHT22;7779;49.596;11.070;2023-04-25T03:40:12;10.30;62.60
15359;DHT22;7779;49.596;11.070;2023-04-25T03:43:06;10.30;62.60
15359;DHT22;7779;49.596;11.070;2023-04-25T03:45:33;10.30;62.70
15359;DHT22;7779;49.596;11.070;2023-04-25T03:47:59;10.30;62.70
15359;DHT22;7779;49.596;11.070;2023-04-25T03:50:27;10.30;62.70
15359;DHT22;7779;49.596;11.070;2023-04-25T03:52:52;10.30;62.80
15359;DHT22;7779;49.596;11.070;2023-04-25T03:55:18;10.30;62.80
15359;DHT22;7779;49.596;11.070;2023-04-25T03:57:44;10.30;62.80
15359;DHT22;7779;49.596;11.070;2023-04-25T04:00:10;10.30;62.90
15359;DHT22;7779;49.596;11.070;2023-04-25T04:02:39;10.30;62.80
15359;DHT22;7779;49.596;11.070;2023-04-25T04:05:06;10.30;62.80
15359;DHT22;7779;49.596;11.070;2023-04-25T04:07:36;10.30;62.80
15359;DHT22;7779;49.596;11.070;2023-04-25T04:10:07;10.30;62.80
15359;DHT22;7779;49.596;11.070;2023-04-25T04:12:36;10.30;62.80
15359;DHT22;7779;49.596;11.070;2023-04-25T04:15:06;10.30;62.80
15359;DHT22;7779;49.596;11.070;2023-04-25T04:17:34;10.30;62.90
15359;DHT22;7779;49.596;11.070;2023-04-25T04:20:00;10.30;62.80
15359;DHT22;7779;49.596;11.070;2023-04-25T04:22:28;10.30;62.80
15359;DHT22;7779;49.596;11.070;2023-04-25T04:24:58;10.30;62.80
15359;DHT22;7779;49.596;11.070;2023-04-25T04:27:58;10.30;62.80
15359;DHT22;7779;49.596;11.070;2023-04-25T04:30:39;10.30;62.80
15359;DHT22;7779;49.596;11.070;2023-04-25T04:33:08;10.30;62.80
15359;DHT22;7779;49.596;11.070;2023-04-25T04:35:34;10.30;62.80
15359;DHT22;7779;49.596;11.070;2023-04-25T04:38:00;10.30;62.80
15359;DHT22;7779;49.596;11.070;2023-04-25T04:40:30;10.30;62.80
15359;DHT22;7779;49.596;11.070;2023-04-25T04:43:10;10.30;62.80
15359;DHT22;7779;49.596;11.070;2023-04-25T04:46:11;10.30;62.80
15359;DHT22;7779;49.596;11.070;2023-04-25T04:48:49;10.30;62.90
15359;DHT22;7779;49.596;11.070;2023-04-25T04:51:28;10.30;62.90
15359;DHT22;7779;49.596;11.070;2023-04-25T04:54:07;10.30;62.90
15359;DHT22;7779;49.596;11.070;2023-04-25T04:56:51;10.30;62.90
15359;DHT22;7779;49.596;11.070;2023-04-25T04:59:35;10.30;62.90
15359;DHT22;7779;49.596;11.070;2023-04-25T05:02:21;10.30;62.90
15359;DHT22;7779;49.596;11.070;2023-04-25T05:05:00;10.30;63.00
15359;DHT22;7779;49.596;11.070;2023-04-25T05:07:49;10.30;63.10
15359;DHT22;7779;49.596;11.070;2023-04-25T05:10:26;10.30;63.10
15359;DHT22;7779;49.596;11.070;2023-04-25T05:13:03;10.30;63.10
15359;DHT22;7779;49.596;11.070;2023-04-25T05:15:57;10.30;63.30
15359;DHT22;7779;49.596;11.070;2023-04-25T05:18:52;10.30;63.30
15359;DHT22;7779;49.596;11.070;2023-04-25T05:21:27;10.30;63.40
15359;DHT22;7779;49.596;11.070;2023-04-25T05:24:12;10.30;63.50
15359;DHT22;7779;49.596;11.070;2023-04-25T05:27:08;10.40;64.30
15359;DHT22;7779;49.596;11.070;2023-04-25T05:30:01;10.40;63.70
15359;DHT22;7779;49.596;11.070;2023-04-25T05:32:35;10.40;63.60
15359;DHT22;7779;49.596;11.070;2023-04-25T05:35:02;10.40;63.50
15359;DHT22;7779;49.596;11.070;2023-04-25T05:37:34;10.50;63.60
15359;DHT22;7779;49.596;11.070;2023-04-25T05:40:12;10.50;63.60
15359;DHT22;7779;49.596;11.070;2023-04-25T05:43:01;10.50;63.80
15359;DHT22;7779;49.596;11.070;2023-04-25T05:45:45;10.60;64.00
15359;DHT22;7779;49.596;11.070;2023-04-25T05:48:29;10.60;64.10
15359;DHT22;7779;49.596;11.070;2023-04-25T05:50:59;10.70;64.00
15359;DHT22;7779;49.596;11.070;2023-04-25T05:53:46;10.70;63.80
15359;DHT22;7779;49.596;11.070;2023-04-25T05:56:13;10.80;63.80
15359;DHT22;7779;49.596;11.070;2023-04-25T05:58:39;10.80;63.70
15359;DHT22;7779;49.596;11.070;2023-04-25T06:01:06;10.80;63.30
15359;DHT22;7779;49.596;11.070;2023-04-25T06:03:32;10.90;63.50
15359;DHT22;7779;49.596;11.070;2023-04-25T06:05:58;10.90;63.40
15359;DHT22;7779;49.596;11.070;2023-04-25T06:08:25;10.90;63.20
15359;DHT22;7779;49.596;11.070;2023-04-25T06:10:50;10.90;63.10
15359;DHT22;7779;49.596;11.070;2023-04-25T06:13:16;10.90;63.00
15359;DHT22;7779;49.596;11.070;2023-04-25T06:15:42;10.90;63.00
15359;DHT22;7779;49.596;11.070;2023-04-25T06:18:08;10.80;62.90
15359;DHT22;7779;49.596;11.070;2023-04-25T06:20:34;10.80;62.80
15359;DHT22;7779;49.596;11.070;2023-04-25T06:23:00;10.80;63.60
15359;DHT22;7779;49.596;11.070;2023-04-25T06:25:36;10.80;63.00
15359;DHT22;7779;49.596;11.070;2023-04-25T06:28:02;10.80;63.10
15359;DHT22;7779;49.596;11.070;2023-04-25T06:30:28;10.70;63.10
15359;DHT22;7779;49.596;11.070;2023-04-25T06:32:59;10.70;63.20
15359;DHT22;7779;49.596;11.070;2023-04-25T06:35:27;10.70;63.20
15359;DHT22;7779;49.596;11.070;2023-04-25T06:37:53;10.70;63.30
15359;DHT22;7779;49.596;11.070;2023-04-25T06:40:21;10.70;63.50
15359;DHT22;7779;49.596;11.070;2023-04-25T06:42:47;10.70;63.50
15359;DHT22;7779;49.596;11.070;2023-04-25T06:45:45;10.70;63.70
15359;DHT22;7779;49.596;11.070;2023-04-25T06:48:11;10.70;63.90
15359;DHT22;7779;49.596;11.070;2023-04-25T06:50:37;10.70;64.30
15359;DHT22;7779;49.596;11.070;2023-04-25T06:53:02;10.70;64.60
15359;DHT22;7779;49.596;11.070;2023-04-25T06:55:29;10.70;64.90
15359;DHT22;7779;49.596;11.070;2023-04-25T06:58:08;10.70;64.90
15359;DHT22;7779;49.596;11.070;2023-04-25T07:01:03;10.80;64.90
15359;DHT22;7779;49.596;11.070;2023-04-25T07:03:29;10.80;64.90
15359;DHT22;7779;49.596;11.070;2023-04-25T07:05:59;10.90;64.90
15359;DHT22;7779;49.596;11.070;2023-04-25T07:08:25;10.90;64.60
15359;DHT22;7779;49.596;11.070;2023-04-25T07:10:51;10.90;64.90
15359;DHT22;7779;49.596;11.070;2023-04-25T07:13:17;10.90;63.80
15359;DHT22;7779;49.596;11.070;2023-04-25T07:15:43;10.90;63.60
15359;DHT22;7779;49.596;11.070;2023-04-25T07:18:10;10.90;63.30
15359;DHT22;7779;49.596;11.070;2023-04-25T07:20:36;10.80;63.20
15359;DHT22;7779;49.596;11.070;2023-04-25T07:23:02;10.80;63.20
15359;DHT22;7779;49.596;11.070;2023-04-25T07:25:28;10.70;63.10
15359;DHT22;7779;49.596;11.070;2023-04-25T07:27:54;10.70;63.10
15359;DHT22;7779;49.596;11.070;2023-04-25T07:30:21;10.70;62.90
15359;DHT22;7779;49.596;11.070;2023-04-25T07:32:47;10.60;62.90
15359;DHT22;7779;49.596;11.070;2023-04-25T07:35:13;10.60;63.10
15359;DHT22;7779;49.596;11.070;2023-04-25T07:37:40;10.50;63.00
15359;DHT22;7779;49.596;11.070;2023-04-25T07:40:12;10.50;63.90
15359;DHT22;7779;49.596;11.070;2023-04-25T07:42:43;10.50;63.50
15359;DHT22;7779;49.596;11.070;2023-04-25T07:45:11;10.50;63.70
15359;DHT22;7779;49.596;11.070;2023-04-25T07:47:38;10.50;63.90
15359;DHT22;7779;49.596;11.070;2023-04-25T07:50:05;10.50;64.10
15359;DHT22;7779;49.596;11.070;2023-04-25T07:52:32;10.60;64.50
15359;DHT22;7779;49.596;11.070;2023-04-25T07:55:16;10.60;64.50
15359;DHT22;7779;49.596;11.070;2023-04-25T07:57:56;10.70;64.70
15359;DHT22;7779;49.596;11.070;2023-04-25T08:00:22;10.80;65.00
15359;DHT22;7779;49.596;11.070;2023-04-25T08:02:55;10.80;65.00
15359;DHT22;7779;49.596;11.070;2023-04-25T08:05:21;10.90;64.90
15359;DHT22;7779;49.596;11.070;2023-04-25T08:07:52;11.00;65.20
15359;DHT22;7779;49.596;11.070;2023-04-25T08:10:18;11.20;65.40
15359;DHT22;7779;49.596;11.070;2023-04-25T08:12:47;11.30;65.60
15359;DHT22;7779;49.596;11.070;2023-04-25T08:15:12;11.40;65.50
15359;DHT22;7779;49.596;11.070;2023-04-25T08:17:39;11.50;65.60
15359;DHT22;7779;49.596;11.070;2023-04-25T08:20:05;11.60;65.70
15359;DHT22;7779;49.596;11.070;2023-04-25T08:22:33;11.80;65.70
15359;DHT22;7779;49.596;11.070;2023-04-25T08:25:14;11.90;65.50
15359;DHT22;7779;49.596;11.070;2023-04-25T08:27:40;12.00;65.30
15359;DHT22;7779;49.596;11.070;2023-04-25T08:30:06;12.20;65.30
15359;DHT22;7779;49.596;11.070;2023-04-25T08:32:34;12.30;65.20
15359;DHT22;7779;49.596;11.070;2023-04-25T08:35:21;12.40;64.80
15359;DHT22;7779;49.596;11.070;2023-04-25T08:37:47;12.50;64.70
15359;DHT22;7779;49.596;11.070;2023-04-25T08:40:15;12.60;64.30
15359;DHT22;7779;49.596;11.070;2023-04-25T08:43:13;12.70;64.20
15359;DHT22;7779;49.596;11.070;2023-04-25T08:45:41;12.80;63.70
15359;DHT22;7779;49.596;11.070;2023-04-25T08:48:14;12.80;63.20
15359;DHT22;7779;49.596;11.070;2023-04-25T08:50:49;12.80;62.50
15359;DHT22;7779;49.596;11.070;2023-04-25T08:53:26;12.90;63.20
15359;DHT22;7779;49.596;11.070;2023-04-25T08:55:54;12.90;63.10
15359;DHT22;7779;49.596;11.070;2023-04-25T08:58:21;12.90;63.10
15359;DHT22;7779;49.596;11.070;2023-04-25T09:00:48;13.00;63.40
15359;DHT22;7779;49.596;11.070;2023-04-25T09:03:19;13.10;63.60
15359;DHT22;7779;49.596;11.070;2023-04-25T09:05:47;13.20;63.70
15359;DHT22;7779;49.596;11.070;2023-04-25T09:08:14;13.30;64.10
15359;DHT22;7779;49.596;11.070;2023-04-25T09:10:40;13.40;64.10
15359;DHT22;7779;49.596;11.070;2023-04-25T09:13:09;13.60;63.70
15359;DHT22;7779;49.596;11.070;2023-04-25T09:15:58;13.70;63.00
15359;DHT22;7779;49.596;11.070;2023-04-25T09:18:46;13.70;62.50
15359;DHT22;7779;49.596;11.070;2023-04-25T09:21:13;13.80;62.10
15359;DHT22;7779;49.596;11.070;2023-04-25T09:23:47;13.80;62.00
15359;DHT22;7779;49.596;11.070;2023-04-25T09:26:15;13.90;61.40
15359;DHT22;7779;49.596;11.070;2023-04-25T09:28:43;13.90;61.80
15359;DHT22;7779;49.596;11.070;2023-04-25T09:31:12;13.90;61.90
15359;DHT22;7779;49.596;11.070;2023-04-25T09:33:48;14.00;61.90
15359;DHT22;7779;49.596;11.070;2023-04-25T09:36:14;14.10;62.00
15359;DHT22;7779;49.596;11.070;2023-04-25T09:39:01;14.10;61.60
15359;DHT22;7779;49.596;11.070;2023-04-25T09:41:28;14.20;61.20
15359;DHT22;7779;49.596;11.070;2023-04-25T09:43:58;14.30;61.00
15359;DHT22;7779;49.596;11.070;2023-04-25T09:46:33;14.40;60.90
15359;DHT22;7779;49.596;11.070;2023-04-25T09:49:06;14.50;60.20
15359;DHT22;7779;49.596;11.070;2023-04-25T09:51:40;14.50;60.10
15359;DHT22;7779;49.596;11.070;2023-04-25T09:54:06;14.60;60.30
15359;DHT22;7779;49.596;11.070;2023-04-25T09:56:39;14.60;60.80
15359;DHT22;7779;49.596;11.070;2023-04-25T09:59:07;14.70;59.80
15359;DHT22;7779;49.596;11.070;2023-04-25T10:01:39;14.70;59.80
15359;DHT22;7779;49.596;11.070;2023-04-25T10:04:24;14.80;58.50
15359;DHT22;7779;49.596;11.070;2023-04-25T10:06:58;14.80;58.10
15359;DHT22;7779;49.596;11.070;2023-04-25T10:09:26;14.80;57.90
15359;DHT22;7779;49.596;11.070;2023-04-25T10:11:57;14.70;57.40
15359;DHT22;7779;49.596;11.070;2023-04-25T10:14:24;14.70;57.00
15359;DHT22;7779;49.596;11.070;2023-04-25T10:16:50;14.70;57.00
15359;DHT22;7779;49.596;11.070;2023-04-25T10:19:19;14.70;57.10
15359;DHT22;7779;49.596;11.070;2023-04-25T10:22:20;14.70;56.90
15359;DHT22;7779;49.596;11.070;2023-04-25T10:24:56;14.80;55.20
15359;DHT22;7779;49.596;11.070;2023-04-25T10:27:22;14.80;56.90
15359;DHT22;7779;49.596;11.070;2023-04-25T10:30:04;14.90;56.70
15359;DHT22;7779;49.596;11.070;2023-04-25T10:32:35;14.90;55.30
15359;DHT22;7779;49.596;11.070;2023-04-25T10:35:15;15.00;56.00
15359;DHT22;7779;49.596;11.070;2023-04-25T10:38:10;15.00;54.10
15359;DHT22;7779;49.596;11.070;2023-04-25T10:40:36;15.10;54.60
15359;DHT22;7779;49.596;11.070;2023-04-25T10:43:37;15.10;55.20
15359;DHT22;7779;49.596;11.070;2023-04-25T10:48:55;15.10;54.10
15359;DHT22;7779;49.596;11.070;2023-04-25T10:56:53;15.00;54.90
15359;DHT22;7779;49.596;11.070;2023-04-25T10:59:19;15.00;53.70
15359;DHT22;7779;49.596;11.070;2023-04-25T11:01:53;14.90;54.70
15359;DHT22;7779;49.596;11.070;2023-04-25T11:07:34;14.90;54.30
15359;DHT22;7779;49.596;11.070;2023-04-25T11:10:04;14.90;52.70
15359;DHT22;7779;49.596;11.070;2023-04-25T11:12:31;14.90;54.50
15359;DHT22;7779;49.596;11.070;2023-04-25T11:15:01;14.90;54.30
15359;DHT22;7779;49.596;11.070;2023-04-25T11:17:28;15.00;54.10
15359;DHT22;7779;49.596;11.070;2023-04-25T11:19:55;15.00;54.30
15359;DHT22;7779;49.596;11.070;2023-04-25T11:22:22;15.10;54.20
15359;DHT22;7779;49.596;11.070;2023-04-25T11:24:48;15.10;54.20
15359;DHT22;7779;49.596;11.070;2023-04-25T11:27:14;15.20;54.00
15359;DHT22;7779;49.596;11.070;2023-04-25T11:29:40;15.20;54.00
15359;DHT22;7779;49.596;11.070;2023-04-25T11:32:06;15.30;53.60
15359;DHT22;7779;49.596;11.070;2023-04-25T11:34:33;15.30;53.50
15359;DHT22;7779;49.596;11.070;2023-04-25T11:37:03;15.40;53.40
15359;DHT22;7779;49.596;11.070;2023-04-25T11:39:30;15.50;52.00
15359;DHT22;7779;49.596;11.070;2023-04-25T11:41:56;15.50;53.30
15359;DHT22;7779;49.596;11.070;2023-04-25T11:44:22;15.60;53.20
15359;DHT22;7779;49.596;11.070;2023-04-25T11:46:48;15.70;53.30
15359;DHT22;7779;49.596;11.070;2023-04-25T11:49:14;15.70;53.10
15359;DHT22;7779;49.596;11.070;2023-04-25T11:51:45;15.80;52.80
15359;DHT22;7779;49.596;11.070;2023-04-25T11:54:12;15.90;52.30
15359;DHT22;7779;49.596;11.070;2023-04-25T11:56:45;15.90;52.10
15359;DHT22;7779;49.596;11.070;2023-04-25T11:59:12;15.90;51.10
15359;DHT22;7779;49.596;11.070;2023-04-25T12:01:39;15.90;51.70
15359;DHT22;7779;49.596;11.070;2023-04-25T12:04:14;15.90;51.20
15359;DHT22;7779;49.596;11.070;2023-04-25T12:06:44;15.90;50.90
15359;DHT22;7779;49.596;11.070;2023-04-25T12:09:15;15.90;51.40
15359;DHT22;7779;49.596;11.070;2023-04-25T12:11:45;15.90;51.30
15359;DHT22;7779;49.596;11.070;2023-04-25T12:14:34;16.00;51.30
15359;DHT22;7779;49.596;11.070;2023-04-25T12:17:02;16.00;50.60
15359;DHT22;7779;49.596;11.070;2023-04-25T12:19:33;15.90;50.90
15359;DHT22;7779;49.596;11.070;2023-04-25T12:22:01;16.00;50.30
15359;DHT22;7779;49.596;11.070;2023-04-25T12:24:33;15.90;50.50
15359;DHT22;7779;49.596;11.070;2023-04-25T12:27:00;15.90;49.70
15359;DHT22;7779;49.596;11.070;2023-04-25T12:29:29;15.80;50.00
15359;DHT22;7779;49.596;11.070;2023-04-25T12:31:57;15.70;49.80
15359;DHT22;7779;49.596;11.070;2023-04-25T12:34:23;15.70;49.90
15359;DHT22;7779;49.596;11.070;2023-04-25T12:36:50;15.60;49.40
15359;DHT22;7779;49.596;11.070;2023-04-25T12:39:18;15.50;49.60
15359;DHT22;7779;49.596;11.070;2023-04-25T12:41:46;15.40;49.50
15359;DHT22;7779;49.596;11.070;2023-04-25T12:44:12;15.30;49.60
15359;DHT22;7779;49.596;11.070;2023-04-25T12:46:38;15.30;49.70
15359;DHT22;7779;49.596;11.070;2023-04-25T12:49:05;15.20;49.60
15359;DHT22;7779;49.596;11.070;2023-04-25T12:51:32;15.10;49.90
15359;DHT22;7779;49.596;11.070;2023-04-25T12:54:02;15.10;50.10
15359;DHT22;7779;49.596;11.070;2023-04-25T12:56:30;15.10;49.90
15359;DHT22;7779;49.596;11.070;2023-04-25T12:58:56;15.10;50.30
15359;DHT22;7779;49.596;11.070;2023-04-25T13:01:23;15.10;50.00
15359;DHT22;7779;49.596;11.070;2023-04-25T13:03:49;15.10;49.90
15359;DHT22;7779;49.596;11.070;2023-04-25T13:06:16;15.10;50.10
15359;DHT22;7779;49.596;11.070;2023-04-25T13:08:43;15.10;50.00
15359;DHT22;7779;49.596;11.070;2023-04-25T13:11:09;15.20;50.10
15359;DHT22;7779;49.596;11.070;2023-04-25T13:13:35;15.20;49.90
15359;DHT22;7779;49.596;11.070;2023-04-25T13:16:02;15.20;49.70
15359;DHT22;7779;49.596;11.070;2023-04-25T13:18:29;15.20;49.70
15359;DHT22;7779;49.596;11.070;2023-04-25T13:20:56;15.20;49.50
15359;DHT22;7779;49.596;11.070;2023-04-25T13:23:22;15.20;49.50
15359;DHT22;7779;49.596;11.070;2023-04-25T13:25:48;15.10;49.50
15359;DHT22;7779;49.596;11.070;2023-04-25T13:28:14;15.10;49.50
15359;DHT22;7779;49.596;11.070;2023-04-25T13:30:42;15.10;49.50
15359;DHT22;7779;49.596;11.070;2023-04-25T13:33:08;15.10;49.40
15359;DHT22;7779;49.596;11.070;2023-04-25T13:35:35;15.00;49.40
15359;DHT22;7779;49.596;11.070;2023-04-25T13:38:02;15.00;49.40
15359;DHT22;7779;49.596;11.070;2023-04-25T13:40:28;15.00;49.60
15359;DHT22;7779;49.596;11.070;2023-04-25T13:42:54;15.00;49.80
15359;DHT22;7779;49.596;11.070;2023-04-25T13:45:20;15.00;49.70
15359;DHT22;7779;49.596;11.070;2023-04-25T13:47:47;15.00;49.80
15359;DHT22;7779;49.596;11.070;2023-04-25T13:50:13;15.00;49.70
15359;DHT22;7779;49.596;11.070;2023-04-25T13:52:39;15.10;49.90
15359;DHT22;7779;49.596;11.070;2023-04-25T13:55:06;15.10;49.90
15359;DHT22;7779;49.596;11.070;2023-04-25T13:57:33;15.10;50.10
15359;DHT22;7779;49.596;11.070;2023-04-25T13:59:59;15.20;50.20
15359;DHT22;7779;49.596;11.070;2023-04-25T14:02:32;15.20;50.00
15359;DHT22;7779;49.596;11.070;2023-04-25T14:04:57;15.30;49.80
15359;DHT22;7779;49.596;11.070;2023-04-25T14:07:23;15.20;49.40
15359;DHT22;7779;49.596;11.070;2023-04-25T14:09:50;15.20;47.70
15359;DHT22;7779;49.596;11.070;2023-04-25T14:12:16;15.20;49.60
15359;DHT22;7779;49.596;11.070;2023-04-25T14:14:41;15.10;48.90
15359;DHT22;7779;49.596;11.070;2023-04-25T14:17:08;15.00;48.60
15359;DHT22;7779;49.596;11.070;2023-04-25T14:19:34;14.80;48.60
15359;DHT22;7779;49.596;11.070;2023-04-25T14:22:01;14.70;48.50
15359;DHT22;7779;49.596;11.070;2023-04-25T14:24:27;14.60;48.50
15359;DHT22;7779;49.596;11.070;2023-04-25T14:26:53;14.50;48.80
15359;DHT22;7779;49.596;11.070;2023-04-25T14:29:18;14.40;48.90
15359;DHT22;7779;49.596;11.070;2023-04-25T14:31:44;14.40;49.20
15359;DHT22;7779;49.596;11.070;2023-04-25T14:34:10;14.30;49.20
15359;DHT22;7779;49.596;11.070;2023-04-25T14:36:36;14.20;49.20
15359;DHT22;7779;49.596;11.070;2023-04-25T14:39:03;14.20;49.20
15359;DHT22;7779;49.596;11.070;2023-04-25T14:41:30;14.20;49.30
15359;DHT22;7779;49.596;11.070;2023-04-25T14:43:56;14.10;49.30
15359;DHT22;7779;49.596;11.070;2023-04-25T14:46:22;14.10;49.40
15359;DHT22;7779;49.596;11.070;2023-04-25T14:48:51;14.00;49.40
15359;DHT22;7779;49.596;11.070;2023-04-25T14:51:17;14.00;49.60
15359;DHT22;7779;49.596;11.070;2023-04-25T14:53:43;14.00;49.60
15359;DHT22;7779;49.596;11.070;2023-04-25T14:56:08;14.00;49.60
15359;DHT22;7779;49.596;11.070;2023-04-25T14:58:34;14.00;49.80
15359;DHT22;7779;49.596;11.070;2023-04-25T15:01:00;13.90;49.70
15359;DHT22;7779;49.596;11.070;2023-04-25T15:03:26;13.90;49.50
15359;DHT22;7779;49.596;11.070;2023-04-25T15:05:54;13.90;49.60
15359;DHT22;7779;49.596;11.070;2023-04-25T15:08:21;13.90;49.60
15359;DHT22;7779;49.596;11.070;2023-04-25T15:10:47;13.90;49.60
15359;DHT22;7779;49.596;11.070;2023-04-25T15:13:13;13.90;49.60
15359;DHT22;7779;49.596;11.070;2023-04-25T15:15:38;13.90;49.70
15359;DHT22;7779;49.596;11.070;2023-04-25T15:18:05;14.00;49.80
15359;DHT22;7779;49.596;11.070;2023-04-25T15:20:31;14.00;49.80
15359;DHT22;7779;49.596;11.070;2023-04-25T15:22:57;14.00;49.80
15359;DHT22;7779;49.596;11.070;2023-04-25T15:25:23;14.10;49.90
15359;DHT22;7779;49.596;11.070;2023-04-25T15:27:49;14.10;49.80
15359;DHT22;7779;49.596;11.070;2023-04-25T15:30:17;14.10;49.60
15359;DHT22;7779;49.596;11.070;2023-04-25T15:32:45;14.10;49.40
15359;DHT22;7779;49.596;11.070;2023-04-25T15:35:13;14.20;49.40
15359;DHT22;7779;49.596;11.070;2023-04-25T15:37:40;14.10;49.20
15359;DHT22;7779;49.596;11.070;2023-04-25T15:40:11;14.10;49.20
15359;DHT22;7779;49.596;11.070;2023-04-25T15:45:10;13.90;48.90
15359;DHT22;7779;49.596;11.070;2023-04-25T15:47:37;13.90;48.90
15359;DHT22;7779;49.596;11.070;2023-04-25T15:50:07;13.80;47.80
15359;DHT22;7779;49.596;11.070;2023-04-25T15:52:35;13.70;48.80
15359;DHT22;7779;49.596;11.070;2023-04-25T15:55:02;13.60;49.00
15359;DHT22;7779;49.596;11.070;2023-04-25T15:57:34;13.60;49.30
15359;DHT22;7779;49.596;11.070;2023-04-25T16:00:01;13.50;49.30
15359;DHT22;7779;49.596;11.070;2023-04-25T16:02:41;13.50;49.40